Time;durP1;ratioP1;P1;durP2;ratioP2;P2;SDS_P1;SDS_P2;PMS_P1;PMS_P2;Temp;Humidity;BMP_temperature;BMP_pressure;BME280_temperature;BME280_humidity;BME280_pressure;Samples;Min_cycle;Max_cycle;Signal;HPM_P1;HPM_P2
2022/10/10 00:01:13;;;;;;;8.23;4.77;;;6.70;99.90;;;;;;5068517;28;20040;-69
2022/10/10 00:03:39;;;;;;;9.10;4.53;;;6.70;99.90;;;;;;5069100;28;20407;-69
2022/10/10 00:06:05;;;;;;;8.77;4.87;;;6.70;99.90;;;;;;5069256;28;20052;-68
2022/10/10 00:08:31;;;;;;;7.87;4.67;;;6.70;99.90;;;;;;5056744;28;20407;-69
2022/10/10 00:10:56;;;;;;;8.17;5.00;;;6.70;99.90;;;;;;5068296;28;20135;-69
2022/10/10 00:13:22;;;;;;;6.80;4.83;;;6.70;99.90;;;;;;5067124;28;20094;-69
2022/10/10 00:15:47;;;;;;;13.37;5.37;;;6.70;99.90;;;;;;5073074;28;20135;-69
2022/10/10 00:18:13;;;;;;;9.80;5.47;;;6.70;99.90;;;;;;5071963;28;20036;-69
2022/10/10 00:20:39;;;;;;;7.13;5.40;;;6.80;99.90;;;;;;5076339;28;20040;-69
2022/10/10 00:23:04;;;;;;;9.53;5.37;;;6.70;99.90;;;;;;5089269;28;20047;-69
2022/10/10 00:25:30;;;;;;;8.13;5.47;;;6.70;99.90;;;;;;5072250;28;20518;-69
2022/10/10 00:28:00;;;;;;;8.97;4.87;;;6.80;99.90;;;;;;5063658;28;20055;-69
2022/10/10 00:30:26;;;;;;;7.43;5.20;;;6.80;99.90;;;;;;5089797;28;20136;-69
2022/10/10 00:32:51;;;;;;;7.87;5.60;;;6.80;99.90;;;;;;5087572;28;20135;-69
2022/10/10 00:35:17;;;;;;;6.03;4.90;;;6.90;99.90;;;;;;5087749;28;20746;-69
2022/10/10 00:37:43;;;;;;;9.77;5.10;;;6.90;99.90;;;;;;5072627;28;20578;-69
2022/10/10 00:40:10;;;;;;;8.13;4.90;;;7.00;99.90;;;;;;5066150;28;20109;-69
2022/10/10 00:42:35;;;;;;;7.40;5.43;;;7.00;99.90;;;;;;5062768;28;20051;-69
2022/10/10 00:45:34;;;;;;;8.43;4.60;;;7.20;99.90;;;;;;5061463;28;20040;-68
2022/10/10 00:48:05;;;;;;;12.13;4.60;;;7.10;99.90;;;;;;5047304;28;20055;-69
2022/10/10 00:50:34;;;;;;;8.32;4.65;;;7.00;99.90;;;;;;5051805;28;20087;-69
2022/10/10 00:53:00;;;;;;;8.87;5.00;;;6.90;99.90;;;;;;5061346;28;20041;-69
2022/10/10 00:55:26;;;;;;;10.83;5.27;;;6.90;99.90;;;;;;5061928;28;20395;-69
2022/10/10 00:57:52;;;;;;;9.30;4.63;;;6.90;99.90;;;;;;5046447;28;20049;-69
2022/10/10 01:00:18;;;;;;;6.97;4.87;;;6.80;99.90;;;;;;5064224;28;20051;-69
2022/10/10 01:02:43;;;;;;;7.63;4.67;;;6.90;99.90;;;;;;5060098;28;20052;-69
2022/10/10 01:05:09;;;;;;;7.47;4.80;;;6.90;99.90;;;;;;5065143;28;20609;-68
2022/10/10 01:07:35;;;;;;;6.93;4.87;;;7.00;99.90;;;;;;5035758;28;20500;-69
2022/10/10 01:10:09;;;;;;;9.80;4.33;;;6.90;99.90;;;;;;5048336;28;20670;-68
2022/10/10 01:13:22;;;;;;;6.50;4.50;;;7.00;99.90;;;;;;5060529;28;20039;-69
2022/10/10 01:16:04;;;;;;;7.67;4.93;;;7.10;99.90;;;;;;5016898;28;20094;-69
2022/10/10 01:18:57;;;;;;;7.80;4.50;;;7.00;99.90;;;;;;5034427;28;20036;-69
2022/10/10 01:21:45;;;;;;;8.20;4.97;;;7.00;99.90;;;;;;5060719;28;20048;-68
2022/10/10 01:24:22;;;;;;;6.50;4.57;;;7.00;99.90;;;;;;5065968;28;20507;-68
2022/10/10 01:27:17;;;;;;;8.73;4.80;;;6.90;99.90;;;;;;5051410;28;20059;-69
2022/10/10 01:29:56;;;;;;;6.30;4.30;;;6.90;99.90;;;;;;5055294;28;20137;-68
2022/10/10 01:32:32;;;;;;;7.87;4.67;;;6.80;99.90;;;;;;5085443;28;20048;-68
2022/10/10 01:35:27;;;;;;;7.23;4.67;;;6.90;99.90;;;;;;5087148;28;20737;-69
2022/10/10 01:38:07;;;;;;;8.97;4.80;;;6.80;99.90;;;;;;5068701;28;20105;-69
2022/10/10 01:40:48;;;;;;;8.13;4.97;;;6.90;99.90;;;;;;5053707;28;20044;-69
2022/10/10 01:43:15;;;;;;;8.32;4.78;;;6.90;99.90;;;;;;5068321;28;20503;-69
2022/10/10 01:45:46;;;;;;;7.30;4.90;;;6.90;99.90;;;;;;5079667;28;20044;-69
2022/10/10 01:48:13;;;;;;;8.07;5.23;;;6.90;99.90;;;;;;5050371;28;20109;-69
2022/10/10 01:50:56;;;;;;;9.17;4.80;;;6.90;99.90;;;;;;5066713;28;20289;-69
2022/10/10 01:53:54;;;;;;;8.97;4.50;;;6.90;99.90;;;;;;5065392;28;20074;-69
2022/10/10 01:56:28;;;;;;;8.17;4.83;;;6.80;99.90;;;;;;5046572;28;20159;-69
2022/10/10 01:59:09;;;;;;;7.20;5.10;;;6.70;99.90;;;;;;5063661;28;20059;-69
2022/10/10 02:01:43;;;;;;;7.07;4.80;;;6.70;99.90;;;;;;5066577;28;20072;-69
2022/10/10 02:04:15;;;;;;;6.17;4.80;;;6.60;99.90;;;;;;5064301;28;20102;-68
2022/10/10 02:06:56;;;;;;;9.73;4.90;;;6.50;99.90;;;;;;5053180;28;20869;-69
2022/10/10 02:09:33;;;;;;;7.13;5.23;;;6.50;99.90;;;;;;5065504;28;20044;-69
2022/10/10 02:12:00;;;;;;;8.53;5.30;;;6.60;99.90;;;;;;5061362;28;20128;-69
2022/10/10 02:14:40;;;;;;;10.03;5.37;;;6.60;99.90;;;;;;5067427;28;20411;-69
2022/10/10 02:17:10;;;;;;;9.57;5.60;;;6.50;99.90;;;;;;5040803;28;20064;-68
2022/10/10 02:19:41;;;;;;;10.07;5.83;;;6.50;99.90;;;;;;5044306;28;20040;-69
2022/10/10 02:22:08;;;;;;;6.30;4.22;;;6.50;99.90;;;;;;5065142;28;20056;-69
2022/10/10 02:24:33;;;;;;;6.70;5.37;;;6.60;99.90;;;;;;5071822;28;20155;-69
2022/10/10 02:27:12;;;;;;;7.17;5.30;;;6.60;99.90;;;;;;5057779;28;20068;-69
2022/10/10 02:29:42;;;;;;;11.20;5.43;;;6.60;99.90;;;;;;5091204;28;20055;-69
2022/10/10 02:32:20;;;;;;;6.80;4.97;;;6.60;99.90;;;;;;5089973;28;20149;-68
2022/10/10 02:34:51;;;;;;;8.27;5.33;;;6.60;99.90;;;;;;5091817;28;20071;-69
2022/10/10 02:37:17;;;;;;;8.70;5.70;;;6.60;99.90;;;;;;5074560;28;20164;-69
2022/10/10 02:39:50;;;;;;;9.27;5.87;;;6.60;99.90;;;;;;5072368;28;20067;-70
2022/10/10 02:42:20;;;;;;;8.07;5.57;;;6.70;99.90;;;;;;5068851;28;20040;-69
2022/10/10 02:44:46;;;;;;;8.93;5.20;;;6.70;99.90;;;;;;5083852;28;20048;-69
2022/10/10 02:47:12;;;;;;;8.00;5.40;;;6.70;99.90;;;;;;5053719;28;20047;-69
2022/10/10 02:49:38;;;;;;;9.87;5.27;;;6.70;99.90;;;;;;5071120;28;20048;-69
2022/10/10 02:52:04;;;;;;;9.83;6.37;;;6.70;99.90;;;;;;5070426;28;20052;-69
2022/10/10 02:54:30;;;;;;;9.17;5.30;;;6.70;99.90;;;;;;5071493;28;20051;-69
2022/10/10 02:56:55;;;;;;;12.23;5.87;;;6.60;99.90;;;;;;5075813;28;20506;-69
2022/10/10 02:59:21;;;;;;;10.47;6.27;;;6.60;99.90;;;;;;5089007;28;20454;-69
2022/10/10 03:01:47;;;;;;;13.00;6.07;;;6.60;99.90;;;;;;5091452;28;20078;-69
2022/10/10 03:04:13;;;;;;;9.70;6.30;;;6.60;99.90;;;;;;5075286;28;20048;-69
2022/10/10 03:06:38;;;;;;;10.47;6.00;;;6.50;99.90;;;;;;5056910;28;20091;-69
2022/10/10 03:09:05;;;;;;;9.23;5.47;;;6.50;99.90;;;;;;5066876;28;20098;-69
2022/10/10 03:11:30;;;;;;;10.00;6.50;;;6.50;99.90;;;;;;5069543;28;20063;-69
2022/10/10 03:13:56;;;;;;;6.93;5.63;;;6.60;99.90;;;;;;5084597;28;20028;-69
2022/10/10 03:16:22;;;;;;;8.43;5.87;;;6.50;99.90;;;;;;5078501;28;20101;-69
2022/10/10 03:18:48;;;;;;;8.60;6.00;;;6.40;99.90;;;;;;5071001;28;20109;-69
2022/10/10 03:21:13;;;;;;;9.40;6.67;;;6.50;99.90;;;;;;5070529;28;20052;-69
2022/10/10 03:23:39;;;;;;;9.07;6.07;;;6.50;99.90;;;;;;5068497;28;20064;-69
2022/10/10 03:26:05;;;;;;;13.13;6.53;;;6.30;99.90;;;;;;5069411;28;20041;-69
2022/10/10 03:28:31;;;;;;;9.57;6.30;;;6.50;99.90;;;;;;5069611;28;20048;-69
2022/10/10 03:30:57;;;;;;;10.80;7.53;;;6.60;99.90;;;;;;5081749;28;20056;-68
2022/10/10 03:33:22;;;;;;;12.93;7.07;;;6.70;99.90;;;;;;5069557;28;20041;-68
2022/10/10 03:35:48;;;;;;;9.20;6.73;;;6.70;99.90;;;;;;5070104;28;20439;-69
2022/10/10 03:38:14;;;;;;;12.03;6.67;;;6.80;99.90;;;;;;5053053;28;20060;-69
2022/10/10 03:40:42;;;;;;;13.60;6.90;;;6.80;99.90;;;;;;5077526;28;20059;-69
2022/10/10 03:43:09;;;;;;;7.40;6.50;;;6.90;99.90;;;;;;5079138;28;20514;-68
2022/10/10 03:45:35;;;;;;;9.63;7.20;;;6.90;99.90;;;;;;5083904;28;20044;-69
2022/10/10 03:48:01;;;;;;;10.70;7.30;;;6.90;99.90;;;;;;5054073;28;20055;-68
2022/10/10 03:50:27;;;;;;;13.27;7.10;;;7.00;99.90;;;;;;5068746;28;20059;-69
2022/10/10 03:52:53;;;;;;;12.17;7.23;;;7.00;99.90;;;;;;5069490;28;20491;-69
2022/10/10 03:55:19;;;;;;;11.47;7.40;;;6.90;99.90;;;;;;5069579;28;20591;-69
2022/10/10 03:57:45;;;;;;;8.93;6.97;;;7.00;99.90;;;;;;5052203;28;20143;-69
2022/10/10 04:00:11;;;;;;;10.10;7.13;;;7.00;99.90;;;;;;5070196;28;20049;-68
2022/10/10 04:02:37;;;;;;;9.30;6.67;;;7.00;99.90;;;;;;5066012;28;20080;-68
2022/10/10 04:05:03;;;;;;;13.37;8.37;;;7.00;99.90;;;;;;5070270;28;20102;-68
2022/10/10 04:07:30;;;;;;;12.07;7.93;;;7.10;99.90;;;;;;5054241;28;20040;-69
2022/10/10 04:09:56;;;;;;;14.20;7.87;;;7.10;99.90;;;;;;5085497;28;20079;-69
2022/10/10 04:12:21;;;;;;;11.23;6.80;;;7.00;99.90;;;;;;5075800;28;20096;-69
2022/10/10 04:14:47;;;;;;;13.07;7.67;;;7.00;99.90;;;;;;5078642;28;20941;-68
2022/10/10 04:17:13;;;;;;;12.63;7.87;;;7.00;99.90;;;;;;5067500;28;20059;-69
2022/10/10 04:19:38;;;;;;;11.53;7.43;;;7.00;99.90;;;;;;5085138;28;20401;-69
2022/10/10 04:22:04;;;;;;;9.90;7.30;;;7.10;99.90;;;;;;5068816;28;20129;-68
2022/10/10 04:24:30;;;;;;;11.23;7.13;;;6.90;99.90;;;;;;5069256;28;20056;-69
2022/10/10 04:26:55;;;;;;;12.73;7.07;;;6.90;99.90;;;;;;5055276;28;20045;-69
2022/10/10 04:29:21;;;;;;;13.63;7.73;;;7.00;99.90;;;;;;5088349;28;20076;-68
2022/10/10 04:31:47;;;;;;;10.27;7.60;;;6.90;99.90;;;;;;5074860;28;20048;-68
2022/10/10 04:34:14;;;;;;;12.17;7.87;;;7.00;99.90;;;;;;5066675;28;20125;-68
2022/10/10 04:36:40;;;;;;;11.33;7.37;;;7.00;99.90;;;;;;5053799;28;20056;-69
2022/10/10 04:39:06;;;;;;;12.43;7.93;;;6.90;99.90;;;;;;5066140;28;20087;-69
2022/10/10 04:41:32;;;;;;;13.33;7.67;;;7.00;99.90;;;;;;5067312;28;20098;-68
2022/10/10 04:43:57;;;;;;;10.63;7.57;;;6.90;99.90;;;;;;5076353;28;20052;-69
2022/10/10 04:46:23;;;;;;;13.63;8.10;;;6.90;99.90;;;;;;5063615;28;20124;-69
2022/10/10 04:48:49;;;;;;;13.20;8.20;;;6.90;99.90;;;;;;5063749;28;20055;-69
2022/10/10 04:51:15;;;;;;;12.47;8.10;;;6.90;99.90;;;;;;5067856;28;20052;-68
2022/10/10 04:53:40;;;;;;;13.70;8.50;;;6.90;99.90;;;;;;5066272;28;20407;-68
2022/10/10 04:56:06;;;;;;;10.90;8.37;;;6.90;99.90;;;;;;5063949;28;20169;-69
2022/10/10 04:58:32;;;;;;;13.97;8.23;;;6.90;99.90;;;;;;5057156;28;20044;-68
2022/10/10 05:00:57;;;;;;;11.73;8.63;;;7.00;99.90;;;;;;5067284;28;20521;-68
2022/10/10 05:03:24;;;;;;;13.43;8.03;;;6.90;99.90;;;;;;5066909;28;20048;-68
2022/10/10 05:05:50;;;;;;;13.30;8.40;;;6.80;99.90;;;;;;5064632;28;20045;-68
2022/10/10 05:08:17;;;;;;;12.90;8.03;;;6.80;99.90;;;;;;5047025;28;20063;-68
2022/10/10 05:10:44;;;;;;;10.53;7.80;;;6.70;99.90;;;;;;5065942;28;20056;-68
2022/10/10 05:13:12;;;;;;;15.20;8.37;;;6.80;99.90;;;;;;5064526;28;20056;-68
2022/10/10 05:15:37;;;;;;;13.77;8.40;;;6.70;99.90;;;;;;5068406;28;20036;-69
2022/10/10 05:18:03;;;;;;;12.13;8.33;;;6.70;99.90;;;;;;5050179;28;20441;-69
2022/10/10 05:20:30;;;;;;;11.10;8.27;;;6.60;99.90;;;;;;5068127;28;20129;-69
2022/10/10 05:22:56;;;;;;;12.63;8.30;;;6.50;99.90;;;;;;5048808;28;20135;-68
2022/10/10 05:25:22;;;;;;;14.03;9.17;;;6.50;99.90;;;;;;5066491;28;20135;-69
2022/10/10 05:27:47;;;;;;;16.47;9.30;;;6.50;99.90;;;;;;5060636;28;20109;-69
2022/10/10 05:30:13;;;;;;;15.90;9.23;;;6.60;99.90;;;;;;5071739;28;20063;-68
2022/10/10 05:32:39;;;;;;;13.13;9.20;;;6.60;99.90;;;;;;5049562;28;20045;-69
2022/10/10 05:35:06;;;;;;;11.60;8.67;;;6.60;99.90;;;;;;5068052;28;20067;-68
2022/10/10 05:37:32;;;;;;;15.20;8.93;;;6.60;99.90;;;;;;5050568;28;20102;-69
2022/10/10 05:39:57;;;;;;;13.40;9.33;;;6.60;99.90;;;;;;5065652;28;20048;-68
2022/10/10 05:42:23;;;;;;;12.57;8.73;;;6.60;99.90;;;;;;5061254;28;20876;-69
2022/10/10 05:44:49;;;;;;;13.30;9.17;;;6.60;99.90;;;;;;5054599;28;20044;-69
2022/10/10 05:47:15;;;;;;;14.17;8.83;;;6.60;99.90;;;;;;5049429;28;20355;-68
2022/10/10 05:49:41;;;;;;;14.53;9.47;;;6.60;99.90;;;;;;5053091;28;20041;-69
2022/10/10 05:52:07;;;;;;;14.60;9.33;;;6.50;99.90;;;;;;5063397;28;20533;-69
2022/10/10 05:54:33;;;;;;;13.90;8.57;;;6.60;99.90;;;;;;5061021;28;20048;-69
2022/10/10 05:56:58;;;;;;;13.03;8.73;;;6.80;99.90;;;;;;5048880;28;20052;-69
2022/10/10 05:59:24;;;;;;;16.13;10.17;;;6.60;99.90;;;;;;5054273;28;20131;-68
2022/10/10 06:01:50;;;;;;;14.20;9.77;;;6.70;99.90;;;;;;5086664;28;20131;-68
2022/10/10 06:04:16;;;;;;;14.57;9.47;;;6.70;99.90;;;;;;5070065;28;20188;-68
2022/10/10 06:06:42;;;;;;;16.73;9.37;;;6.70;99.90;;;;;;5054081;28;20127;-68
2022/10/10 06:09:08;;;;;;;14.80;9.50;;;6.80;99.90;;;;;;5079495;28;20137;-68
2022/10/10 06:11:34;;;;;;;12.83;9.37;;;6.90;99.90;;;;;;5084631;28;20052;-68
2022/10/10 06:13:59;;;;;;;15.57;9.77;;;6.90;99.90;;;;;;5081805;28;20483;-68
2022/10/10 06:16:26;;;;;;;16.10;9.47;;;6.90;99.90;;;;;;5074548;28;20493;-69
2022/10/10 06:18:55;;;;;;;12.33;9.23;;;6.90;99.90;;;;;;5083780;28;20123;-68
2022/10/10 06:21:21;;;;;;;14.43;9.80;;;6.90;99.90;;;;;;5068411;28;20114;-68
2022/10/10 06:23:46;;;;;;;16.77;9.60;;;7.00;99.90;;;;;;5048991;28;20457;-68
2022/10/10 06:26:14;;;;;;;14.13;9.53;;;7.10;99.90;;;;;;5056900;28;20079;-69
2022/10/10 06:28:39;;;;;;;13.50;9.60;;;7.10;99.90;;;;;;5076880;28;20447;-68
2022/10/10 06:31:07;;;;;;;14.77;9.73;;;7.10;99.90;;;;;;5086276;28;20090;-68
2022/10/10 06:33:33;;;;;;;14.90;9.60;;;7.20;99.90;;;;;;5085780;28;20048;-68
2022/10/10 06:36:02;;;;;;;14.47;9.33;;;7.20;99.90;;;;;;5069499;28;20074;-68
2022/10/10 06:38:28;;;;;;;13.93;8.87;;;7.40;99.90;;;;;;5070559;28;20036;-68
2022/10/10 06:40:54;;;;;;;15.47;9.10;;;7.40;99.90;;;;;;5086564;28;20121;-68
2022/10/10 06:43:19;;;;;;;12.20;8.43;;;7.50;99.90;;;;;;5069752;28;20050;-68
2022/10/10 06:45:48;;;;;;;16.23;8.80;;;7.60;99.90;;;;;;5055622;28;20505;-68
2022/10/10 06:48:14;;;;;;;13.53;7.87;;;7.60;99.90;;;;;;5038765;28;20546;-68
2022/10/10 06:50:40;;;;;;;17.67;8.67;;;7.70;99.90;;;;;;5077636;28;20503;-68
2022/10/10 06:53:06;;;;;;;13.53;8.93;;;7.70;99.90;;;;;;5075388;28;20123;-68
2022/10/10 06:55:32;;;;;;;14.87;9.27;;;7.90;99.90;;;;;;5074506;28;20054;-68
2022/10/10 06:57:58;;;;;;;12.83;8.53;;;7.90;99.90;;;;;;5059852;28;20086;-69
2022/10/10 07:00:24;;;;;;;14.37;8.60;;;7.90;99.90;;;;;;5076687;28;20120;-68
2022/10/10 07:02:50;;;;;;;12.23;8.17;;;8.10;99.90;;;;;;5080361;28;20050;-69
2022/10/10 07:05:17;;;;;;;14.17;8.47;;;8.10;99.90;;;;;;5079868;28;20049;-68
2022/10/10 07:07:44;;;;;;;11.57;7.97;;;8.20;99.90;;;;;;5062465;28;20125;-69
2022/10/10 07:10:12;;;;;;;11.17;8.37;;;8.30;99.90;;;;;;5080101;28;20468;-69
2022/10/10 07:12:38;;;;;;;14.43;8.97;;;8.40;99.90;;;;;;5072878;28;20048;-69
2022/10/10 07:15:07;;;;;;;14.27;8.43;;;8.50;99.90;;;;;;5078113;28;20052;-69
2022/10/10 07:17:33;;;;;;;15.87;8.47;;;8.40;99.90;;;;;;5066037;28;20036;-69
2022/10/10 07:19:59;;;;;;;16.13;7.43;;;8.50;99.90;;;;;;5082149;28;20450;-69
2022/10/10 07:22:25;;;;;;;17.83;8.20;;;8.50;99.90;;;;;;5070925;28;20645;-69
2022/10/10 07:24:51;;;;;;;11.40;8.30;;;8.60;99.90;;;;;;5078492;28;20406;-69
2022/10/10 07:27:17;;;;;;;12.93;7.90;;;8.60;99.90;;;;;;5062050;28;20052;-69
2022/10/10 07:29:43;;;;;;;12.60;8.10;;;8.50;99.90;;;;;;5079045;28;20352;-69
2022/10/10 07:32:08;;;;;;;13.47;8.23;;;8.50;99.90;;;;;;5072977;28;20052;-69
2022/10/10 07:34:37;;;;;;;12.57;8.90;;;8.70;99.90;;;;;;5049475;28;20694;-69
2022/10/10 07:37:03;;;;;;;14.53;8.63;;;8.60;99.90;;;;;;5031030;28;20053;-68
2022/10/10 07:39:28;;;;;;;12.20;8.87;;;8.60;99.90;;;;;;5049625;28;20036;-69
2022/10/10 07:41:54;;;;;;;14.50;9.00;;;8.70;99.90;;;;;;5047274;28;20059;-69
2022/10/10 07:44:22;;;;;;;11.43;8.93;;;8.70;99.90;;;;;;5046217;28;20123;-69
2022/10/10 07:46:48;;;;;;;14.03;8.97;;;8.80;99.90;;;;;;5032421;28;20067;-69
2022/10/10 07:49:13;;;;;;;16.20;8.70;;;8.80;99.90;;;;;;5047337;28;20407;-69
2022/10/10 07:51:39;;;;;;;16.47;9.07;;;9.00;99.90;;;;;;5046770;28;20068;-69
2022/10/10 07:54:05;;;;;;;14.13;9.07;;;9.00;99.90;;;;;;5046471;28;20055;-69
2022/10/10 07:56:31;;;;;;;12.87;8.53;;;9.10;99.90;;;;;;5035340;28;20098;-69
2022/10/10 07:58:56;;;;;;;14.97;8.87;;;9.20;99.90;;;;;;5046882;28;20061;-69
2022/10/10 08:01:22;;;;;;;13.57;8.80;;;9.20;99.90;;;;;;5047436;28;20036;-69
2022/10/10 08:03:48;;;;;;;17.47;8.47;;;9.30;99.90;;;;;;5045829;28;20431;-69
2022/10/10 08:06:15;;;;;;;11.73;8.90;;;9.50;99.90;;;;;;5037986;28;20067;-69
2022/10/10 08:08:42;;;;;;;15.57;9.30;;;9.70;99.90;;;;;;5040339;28;20048;-69
2022/10/10 08:11:08;;;;;;;17.07;8.53;;;9.70;99.90;;;;;;5048708;28;20059;-69
2022/10/10 08:13:36;;;;;;;14.73;8.80;;;9.90;99.90;;;;;;5045343;28;20191;-69
2022/10/10 08:16:03;;;;;;;14.77;8.87;;;9.80;99.90;;;;;;5050126;28;20048;-69
2022/10/10 08:18:29;;;;;;;14.73;8.33;;;9.90;99.90;;;;;;5030954;28;20067;-69
2022/10/10 08:21:04;;;;;;;13.07;9.03;;;10.00;99.90;;;;;;5046146;28;20049;-69
2022/10/10 08:23:30;;;;;;;19.53;11.77;;;10.10;99.90;;;;;;5045400;28;20044;-69
2022/10/10 08:26:08;;;;;;;44.97;24.40;;;10.10;99.90;;;;;;5045082;28;20067;-69
2022/10/10 08:28:35;;;;;;;36.27;22.03;;;10.30;99.90;;;;;;5036024;28;20036;-69
2022/10/10 08:31:26;;;;;;;18.33;12.13;;;10.50;99.90;;;;;;5046102;28;20083;-69
2022/10/10 08:33:55;;;;;;;13.70;10.20;;;10.50;99.90;;;;;;5040820;28;20496;-69
2022/10/10 08:36:23;;;;;;;17.37;9.57;;;10.50;99.90;;;;;;5035566;28;20060;-69
2022/10/10 08:38:51;;;;;;;18.13;10.63;;;10.60;99.90;;;;;;5042188;28;20494;-69
2022/10/10 08:41:44;;;;;;;15.73;10.47;;;10.60;99.90;;;;;;5040789;28;20048;-69
2022/10/10 08:44:35;;;;;;;14.25;10.13;;;10.60;99.90;;;;;;5044096;28;20066;-69
2022/10/10 08:47:06;;;;;;;15.50;10.03;;;10.70;99.90;;;;;;5026472;28;20163;-69
2022/10/10 08:49:33;;;;;;;16.27;9.20;;;10.80;99.90;;;;;;5042222;28;20049;-69
2022/10/10 08:52:15;;;;;;;12.87;8.70;;;11.00;99.90;;;;;;5041987;28;20656;-69
2022/10/10 08:54:43;;;;;;;16.13;9.40;;;10.90;99.90;;;;;;5040900;28;20044;-69
2022/10/10 08:57:43;;;;;;;14.10;8.85;;;11.00;99.90;;;;;;5026538;28;20641;-69
2022/10/10 09:00:20;;;;;;;12.75;9.00;;;11.00;99.90;;;;;;5041936;28;20048;-69
2022/10/10 09:02:55;;;;;;;14.23;9.32;;;11.10;99.90;;;;;;5040643;28;20040;-70
2022/10/10 09:05:56;;;;;;;17.00;9.88;;;11.20;99.90;;;;;;5042036;28;20678;-69
2022/10/10 09:08:32;;;;;;;;;;;11.30;99.90;;;;;;5026403;28;20041;-69
2022/10/10 09:11:16;;;;;;;14.32;9.38;;;11.40;99.90;;;;;;5041734;28;19928;-70
2022/10/10 09:13:58;;;;;;;14.63;8.73;;;11.50;99.90;;;;;;5041821;28;20661;-69
2022/10/10 09:16:45;;;;;;;15.73;9.10;;;11.50;99.90;;;;;;5031079;28;20879;-69
2022/10/10 09:19:22;;;;;;;16.63;9.50;;;11.50;99.90;;;;;;5042234;28;20044;-69
2022/10/10 09:21:53;;;;;;;16.33;8.98;;;11.60;99.90;;;;;;5042567;28;20056;-69
2022/10/10 09:24:24;;;;;;;13.38;9.00;;;11.60;99.90;;;;;;5040827;28;20079;-69
2022/10/10 09:26:51;;;;;;;;;;;11.70;99.90;;;;;;5011953;28;20072;-70
2022/10/10 09:29:51;;;;;;;16.08;9.75;;;11.80;99.90;;;;;;5043604;28;19924;-70
2022/10/10 09:32:48;;;;;;;16.42;9.38;;;12.00;99.90;;;;;;5041125;28;20702;-69
2022/10/10 09:35:19;;;;;;;16.92;9.95;;;12.00;99.90;;;;;;5021946;28;20052;-69
2022/10/10 09:37:49;;;;;;;16.20;9.85;;;12.10;99.90;;;;;;5026736;28;20052;-70
2022/10/10 09:40:23;;;;;;;11.45;8.93;;;12.20;99.90;;;;;;5040859;28;20083;-70
2022/10/10 09:42:49;;;;;;;14.85;9.27;;;12.20;99.90;;;;;;5039184;28;20060;-70
2022/10/10 09:45:39;;;;;;;13.75;9.43;;;12.30;99.90;;;;;;5039673;28;20053;-69
2022/10/10 09:48:07;;;;;;;15.18;8.80;;;12.40;99.90;;;;;;5023843;28;20412;-69
2022/10/10 09:50:32;;;;;;;14.93;9.30;;;12.50;99.90;;;;;;5040777;28;20044;-70
2022/10/10 09:52:58;;;;;;;15.38;9.52;;;12.30;99.90;;;;;;5038235;28;20137;-69
2022/10/10 09:55:34;;;;;;;13.48;9.82;;;12.60;99.90;;;;;;5040896;28;20569;-69
2022/10/10 09:58:19;;;;;;;13.63;9.35;;;12.70;99.90;;;;;;5009364;28;20048;-70
2022/10/10 10:00:45;;;;;;;12.40;8.88;;;12.90;99.90;;;;;;5041860;28;20059;-70
2022/10/10 10:03:14;;;;;;;17.40;9.55;;;12.90;99.90;;;;;;5039820;28;20037;-70
2022/10/10 10:05:44;;;;;;;14.02;9.57;;;13.00;99.90;;;;;;5039899;28;20045;-70
2022/10/10 10:08:23;;;;;;;15.68;8.65;;;12.90;99.90;;;;;;5008388;28;20048;-70
2022/10/10 10:10:49;;;;;;;14.15;8.30;;;12.90;99.90;;;;;;5040914;28;20080;-70
2022/10/10 10:13:23;;;;;;;17.95;8.77;;;13.00;99.90;;;;;;5039214;28;20178;-70
2022/10/10 10:15:55;;;;;;;11.50;8.70;;;13.20;99.90;;;;;;5041214;28;20079;-70
2022/10/10 10:18:26;;;;;;;15.20;9.48;;;13.20;99.90;;;;;;5023471;28;20064;-70
2022/10/10 10:21:15;;;;;;;16.55;8.93;;;13.20;99.90;;;;;;5040472;28;20181;-70
2022/10/10 10:23:43;;;;;;;14.23;8.80;;;13.30;99.90;;;;;;5040532;28;20808;-69
2022/10/10 10:26:22;;;;;;;14.63;8.05;;;13.40;99.90;;;;;;5035177;28;20564;-70
2022/10/10 10:28:50;;;;;;;18.25;9.23;;;13.50;99.90;;;;;;5037916;28;20048;-70
2022/10/10 10:31:49;;;;;;;15.10;8.60;;;13.50;99.90;;;;;;5039611;28;20049;-70
2022/10/10 10:34:27;;;;;;;15.68;8.25;;;13.90;99.90;;;;;;5039763;28;20049;-70
2022/10/10 10:37:20;;;;;;;16.05;7.93;;;13.90;99.90;;;;;;5028121;28;20103;-70
2022/10/10 10:40:03;;;;;;;13.10;7.93;;;13.90;99.90;;;;;;5043903;28;20099;-70
2022/10/10 10:42:31;;;;;;;13.43;8.00;;;13.90;99.90;;;;;;5042962;28;20041;-70
2022/10/10 10:45:07;;;;;;;13.55;7.80;;;14.00;99.90;;;;;;5045768;28;20049;-70
2022/10/10 10:48:01;;;;;;;16.33;8.45;;;14.00;99.90;;;;;;5027351;28;20071;-70
2022/10/10 10:50:47;;;;;;;14.77;7.78;;;14.00;99.90;;;;;;5034910;28;20060;-69
2022/10/10 10:53:42;;;;;;;13.27;8.13;;;13.90;99.90;;;;;;5044487;28;20052;-70
2022/10/10 10:56:11;;;;;;;14.88;8.75;;;13.90;99.90;;;;;;5037079;28;20056;-70
2022/10/10 10:58:56;;;;;;;13.43;7.72;;;14.00;99.90;;;;;;5036322;28;20161;-70
2022/10/10 11:01:27;;;;;;;14.20;7.93;;;14.00;99.90;;;;;;5043583;28;20925;-70
2022/10/10 11:03:59;;;;;;;12.60;8.27;;;14.00;99.90;;;;;;5043065;28;20110;-70
2022/10/10 11:07:15;;;;;;;14.02;8.02;;;14.00;99.90;;;;;;5031264;28;20052;-70
2022/10/10 11:10:12;;;;;;;15.70;8.18;;;14.00;99.90;;;;;;4964379;28;20054;-70
2022/10/10 11:12:40;;;;;;;13.30;8.20;;;14.00;99.90;;;;;;5043239;28;20068;-70
2022/10/10 11:15:19;;;;;;;15.40;8.60;;;14.00;99.90;;;;;;5042646;28;20076;-70
2022/10/10 11:18:00;;;;;;;17.58;8.45;;;13.90;99.90;;;;;;5024282;28;20060;-70
2022/10/10 11:20:49;;;;;;;11.23;8.43;;;13.80;99.90;;;;;;5037674;28;20296;-70
2022/10/10 11:23:40;;;;;;;15.60;8.48;;;13.90;99.90;;;;;;5038820;28;20186;-69
2022/10/10 11:26:15;;;;;;;13.88;8.57;;;13.80;99.90;;;;;;5038003;28;20090;-69
2022/10/10 11:28:56;;;;;;;16.30;9.48;;;13.80;99.90;;;;;;5033959;28;20037;-69
2022/10/10 11:31:46;;;;;;;12.52;9.40;;;13.70;99.90;;;;;;5044246;28;20118;-71
2022/10/10 11:34:21;;;;;;;19.10;9.63;;;13.70;99.90;;;;;;5043068;28;20056;-70
2022/10/10 11:36:47;;;;;;;14.98;8.82;;;13.60;99.90;;;;;;5029607;28;20059;-69
2022/10/10 11:39:26;;;;;;;14.43;9.63;;;13.60;99.90;;;;;;5042818;28;20191;-70
2022/10/10 11:42:00;;;;;;;14.48;9.38;;;13.60;99.90;;;;;;5043907;28;20075;-70
2022/10/10 11:44:36;;;;;;;20.15;9.18;;;13.60;99.90;;;;;;5043237;28;20109;-69
2022/10/10 11:47:23;;;;;;;14.63;9.65;;;13.60;99.90;;;;;;5028628;28;20063;-70
2022/10/10 11:50:07;;;;;;;14.85;9.10;;;13.60;99.90;;;;;;5042856;28;20052;-69
2022/10/10 11:52:45;;;;;;;15.43;10.02;;;13.60;99.90;;;;;;5042883;28;20052;-70
2022/10/10 11:55:27;;;;;;;16.27;10.65;;;13.50;99.90;;;;;;5046275;28;20558;-70
2022/10/10 11:58:17;;;;;;;17.48;11.25;;;13.50;99.90;;;;;;5027136;28;20511;-70
2022/10/10 12:00:50;;;;;;;15.63;10.23;;;13.50;99.90;;;;;;5043445;28;20048;-70
2022/10/10 12:03:16;;;;;;;16.83;9.85;;;13.50;99.90;;;;;;5042409;28;20574;-71
2022/10/10 12:05:50;;;;;;;16.10;10.20;;;13.50;99.90;;;;;;5043185;28;20052;-70
2022/10/10 12:08:20;;;;;;;15.55;10.07;;;13.50;99.90;;;;;;5009440;28;20051;-70
2022/10/10 12:10:53;;;;;;;15.63;10.70;;;13.30;99.90;;;;;;5043611;28;20075;-70
2022/10/10 12:13:29;;;;;;;15.05;10.43;;;13.50;99.90;;;;;;5042402;28;20151;-71
2022/10/10 12:16:00;;;;;;;20.13;10.73;;;13.60;99.90;;;;;;5043232;28;20060;-70
2022/10/10 12:18:30;;;;;;;15.25;9.68;;;13.60;99.90;;;;;;5026732;28;20055;-70
2022/10/10 12:21:17;;;;;;;16.17;10.25;;;13.70;99.90;;;;;;5042036;28;20863;-71
2022/10/10 12:23:48;;;;;;;18.77;10.80;;;13.60;99.90;;;;;;5033535;28;20044;-70
2022/10/10 12:26:16;;;;;;;;;;;13.70;99.90;;;;;;5033549;28;20731;-71
2022/10/10 12:28:57;;;;;;;16.98;10.52;;;13.70;99.90;;;;;;5037538;28;19980;-70
2022/10/10 12:31:32;;;;;;;17.20;11.43;;;13.60;99.90;;;;;;5042544;28;20167;-70
2022/10/10 12:34:01;;;;;;;22.80;11.38;;;13.60;99.90;;;;;;5040343;28;20135;-70
2022/10/10 12:36:27;;;;;;;20.65;11.55;;;13.60;99.90;;;;;;5028414;28;20486;-70
2022/10/10 12:39:02;;;;;;;22.42;11.70;;;13.60;99.90;;;;;;5038201;28;20534;-70
2022/10/10 12:41:57;;;;;;;19.63;12.05;;;13.50;99.90;;;;;;5040606;28;21577;-71
2022/10/10 12:44:23;;;;;;;24.50;12.70;;;13.40;99.90;;;;;;5038311;28;20075;-70
2022/10/10 12:47:27;;;;;;;21.90;13.00;;;13.40;99.90;;;;;;5027855;28;20695;-71
2022/10/10 12:49:58;;;;;;;25.58;13.93;;;13.30;99.90;;;;;;5040397;28;20059;-69
2022/10/10 12:52:31;;;;;;;21.52;13.98;;;13.30;99.90;;;;;;5041668;28;20670;-70
2022/10/10 12:55:17;;;;;;;21.35;14.25;;;13.20;99.90;;;;;;5038263;28;20411;-70
2022/10/10 12:57:46;;;;;;;22.48;14.30;;;13.10;99.90;;;;;;5026261;28;20124;-68
2022/10/10 13:00:18;;;;;;;23.05;14.32;;;13.20;99.90;;;;;;5041667;28;20095;-68
2022/10/10 13:02:50;;;;;;;22.92;14.57;;;13.00;99.90;;;;;;5041737;28;20068;-70
2022/10/10 13:05:24;;;;;;;26.63;15.40;;;13.10;99.90;;;;;;5042779;28;20522;-70
2022/10/10 13:07:52;;;;;;;25.48;16.02;;;12.90;99.90;;;;;;5027800;28;20526;-70